Terminal Aerodrome Forecast
Issued by NWS

Home | Current Version | Previous Version | Text Only | Print | Product List | Glossary On
Versions: 1 2 3 4 5 6 7 8 9 10 11 12 13 14 15 16 17 18 19 20 21 22 23 24 25 26 27
000
FTAK31 PAFA 111136
TAFAFA
TAF
PAFA 111136Z 1112/1218 VRB03KT P6SM VCSH BKN070 OVC150
     FM112000 20008KT P6SM VCSH BKN070 BKN120
     FM120600 VRB03KT P6SM BKN100=

USA.gov is the U.S. government's official web portal to all federal, state and local government web resources and services.